Time;durP1;ratioP1;P1;durP2;ratioP2;P2;SDS_P1;SDS_P2;PMS_P1;PMS_P2;Temp;Humidity;BMP_temperature;BMP_pressure;BME280_temperature;BME280_humidity;BME280_pressure;Samples;Min_cycle;Max_cycle;Signal;HPM_P1;HPM_P2
2022/03/29 02:18:06;;;;;;;;;;;;;;;6.28;81.07;100365.19;4973983;28;1882;-90
2022/03/29 02:20:38;;;;;;;;;;;;;;;6.27;80.00;100358.91;4974682;28;1228;-91
2022/03/29 02:23:15;;;;;;;;;;;;;;;6.36;79.92;100359.28;4974571;28;1347;-90
2022/03/29 02:32:33;;;;;;;;;;;;;;;6.45;79.36;100342.25;4935174;29;646;-91
2022/03/29 03:59:14;;;;;;;;;;;;;;;6.78;78.60;100305.00;4957082;28;1953;-91
2022/03/29 04:01:46;;;;;;;;;;;;;;;6.75;78.46;100303.63;4942323;29;1422;-91
2022/03/29 04:04:30;;;;;;;;;;;;;;;;;;;;;
2022/03/29 04:13:02;;;;;;;;;;;;;;;6.62;78.42;100287.75;4899829;29;602;-90
2022/03/29 04:15:27;;;;;;;;;;;;;;;6.77;78.31;100281.59;4917985;29;1246;-92
2022/03/29 04:17:52;;;;;;;;;;;;;;;6.71;76.73;100279.94;4929221;29;1988;-91
2022/03/29 04:20:17;;;;;;;;;;;;;;;6.78;77.54;100284.06;4940293;29;1915;-90
2022/03/29 04:22:43;;;;;;;;;;;;;;;6.83;77.17;100277.81;4941727;29;1214;-90
2022/03/29 04:25:10;;;;;;;;;;;;;;;6.79;77.00;100272.09;4941442;29;1429;-91
2022/03/29 04:27:35;;;;;;;;;;;;;;;6.70;77.13;100268.22;4941765;29;1205;-90
2022/03/29 04:30:00;;;;;;;;;;;;;;;6.82;78.15;100263.41;4931539;29;1322;-91
2022/03/29 04:32:25;;;;;;;;;;;;;;;6.88;77.66;100267.00;4941042;29;1776;-91
2022/03/29 04:34:50;;;;;;;;;;;;;;;6.83;76.60;100269.66;4941088;29;1046;-91
2022/03/29 04:37:15;;;;;;;;;;;;;;;6.72;76.83;100262.53;4941049;29;1824;-92
2022/03/29 04:39:41;;;;;;;;;;;;;;;6.59;77.77;100257.53;4934793;29;1961;-91
2022/03/29 04:42:06;;;;;;;;;;;;;;;6.70;78.08;100257.34;4958563;28;961;-92
2022/03/29 04:44:37;;;;;;;;;;;;;;;6.78;77.80;100253.31;4958328;28;1112;-91
2022/03/29 04:47:05;;;;;;;;;;;;;;;6.71;77.30;100256.28;4940580;29;1920;-90
2022/03/29 04:49:30;;;;;;;;;;;;;;;6.79;77.57;100252.25;4940792;29;1420;-91
2022/03/29 04:51:55;;;;;;;;;;;;;;;6.86;78.00;100252.84;4922806;29;1308;-90
2022/03/29 04:54:20;;;;;;;;;;;;;;;6.89;76.99;100246.84;4946059;29;1229;-90
2022/03/29 04:56:45;;;;;;;;;;;;;;;6.92;76.69;100249.06;4920926;29;1422;-90
2022/03/29 04:59:11;;;;;;;;;;;;;;;6.88;77.06;100247.97;4932582;29;1958;-90
2022/03/29 05:01:36;;;;;;;;;;;;;;;6.82;77.30;100248.97;4957994;28;1250;-90
2022/03/29 05:04:02;;;;;;;;;;;;;;;6.76;77.53;100252.75;4940923;29;1276;-90
2022/03/29 05:06:27;;;;;;;;;;;;;;;6.75;77.64;100254.66;4932123;29;1302;-89
2022/03/29 05:08:52;;;;;;;;;;;;;;;6.82;78.17;100251.69;4940278;29;1813;-90
2022/03/29 05:11:17;;;;;;;;;;;;;;;6.81;77.46;100250.06;4940494;29;1213;-89
2022/03/29 05:13:42;;;;;;;;;;;;;;;6.69;77.77;100244.00;4929862;29;1416;-90
2022/03/29 05:16:07;;;;;;;;;;;;;;;6.70;78.16;100251.91;4939844;29;1685;-90
2022/03/29 05:18:33;;;;;;;;;;;;;;;6.72;78.25;100254.38;4940175;29;1903;-90
2022/03/29 05:20:58;;;;;;;;;;;;;;;6.55;77.83;100245.53;4940778;29;1227;-90
2022/03/29 05:23:23;;;;;;;;;;;;;;;6.63;77.50;100245.06;4940237;29;1091;-90
2022/03/29 05:25:48;;;;;;;;;;;;;;;6.71;77.52;100250.84;4957587;28;1202;-89
2022/03/29 05:28:13;;;;;;;;;;;;;;;6.71;77.69;100253.56;4957519;28;968;-90
2022/03/29 05:30:39;;;;;;;;;;;;;;;6.77;77.99;100248.97;4940333;29;1290;-90
2022/03/29 05:33:04;;;;;;;;;;;;;;;6.76;78.05;100242.69;4940667;29;1312;-91
2022/03/29 05:35:30;;;;;;;;;;;;;;;6.69;77.14;100242.09;4940352;29;1292;-90
2022/03/29 05:37:57;;;;;;;;;;;;;;;6.83;77.20;100247.91;4940262;29;1246;-90
2022/03/29 05:40:22;;;;;;;;;;;;;;;6.76;77.30;100253.56;4940133;29;1210;-90
2022/03/29 05:42:47;;;;;;;;;;;;;;;6.73;76.76;100256.00;4957527;28;806;-90
2022/03/29 05:45:13;;;;;;;;;;;;;;;6.66;77.09;100256.22;4951864;28;1312;-90
2022/03/29 05:50:23;;;;;;;;;;;;;;;6.67;76.95;100260.59;4977019;28;597;-90
2022/03/29 05:52:48;;;;;;;;;;;;;;;6.62;78.12;100254.28;4959105;28;1265;-90
2022/03/29 05:55:13;;;;;;;;;;;;;;;6.60;77.44;100246.38;4976212;28;1265;-91
2022/03/29 05:57:38;;;;;;;;;;;;;;;6.57;77.50;100246.91;4958852;28;1229;-89
2022/03/29 06:00:04;;;;;;;;;;;;;;;6.52;77.40;100256.94;4958746;28;1906;-89
2022/03/29 06:02:29;;;;;;;;;;;;;;;6.60;77.60;100256.44;4958821;28;1362;-90
2022/03/29 06:04:55;;;;;;;;;;;;;;;6.70;77.37;100254.63;4975804;28;1012;-90
2022/03/29 06:07:20;;;;;;;;;;;;;;;6.77;77.12;100254.41;4958649;28;1276;-90
2022/03/29 06:09:45;;;;;;;;;;;;;;;6.56;77.25;100253.41;4958526;28;1197;-90
2022/03/29 06:12:10;;;;;;;;;;;;;;;6.61;77.46;100252.66;4958748;28;1250;-90
2022/03/29 06:14:35;;;;;;;;;;;;;;;6.56;77.89;100253.41;4958677;28;1308;-90
2022/03/29 06:17:01;;;;;;;;;;;;;;;6.58;77.70;100258.59;4974973;28;1269;-90
2022/03/29 06:19:27;;;;;;;;;;;;;;;6.63;78.07;100253.22;4958549;28;1898;-89
2022/03/29 06:21:52;;;;;;;;;;;;;;;6.72;77.59;100259.81;4958557;28;1236;-90
2022/03/29 06:24:17;;;;;;;;;;;;;;;6.73;77.46;100262.25;4958326;28;977;-90
2022/03/29 06:26:43;;;;;;;;;;;;;;;6.80;77.43;100260.13;4958327;28;1210;-90
2022/03/29 06:29:09;;;;;;;;;;;;;;;6.76;76.92;100266.34;4958708;28;1243;-90
2022/03/29 06:31:34;;;;;;;;;;;;;;;6.74;77.30;100263.06;4958480;28;1316;-90
2022/03/29 06:34:00;;;;;;;;;;;;;;;6.71;76.45;100261.72;4975439;28;750;-89
2022/03/29 06:36:25;;;;;;;;;;;;;;;6.59;77.00;100235.78;4958284;28;1304;-90
2022/03/29 06:38:50;;;;;;;;;;;;;;;6.59;76.87;100258.34;4958434;28;1894;-90
2022/03/29 06:41:16;;;;;;;;;;;;;;;6.66;76.68;100256.22;4958147;28;1232;-91
2022/03/29 06:43:41;;;;;;;;;;;;;;;6.69;76.02;100258.44;4975288;28;1028;-90
2022/03/29 06:46:08;;;;;;;;;;;;;;;6.72;76.08;100257.88;4958079;28;1343;-90
2022/03/29 06:48:33;;;;;;;;;;;;;;;6.85;75.55;100264.78;4958437;28;1366;-91
2022/03/29 06:50:59;;;;;;;;;;;;;;;6.85;75.40;100259.34;4958113;28;1212;-90
2022/03/29 06:53:24;;;;;;;;;;;;;;;6.79;75.07;100257.69;4958194;28;1213;-90
2022/03/29 06:55:50;;;;;;;;;;;;;;;6.76;75.00;100263.63;4957877;28;1394;-90
2022/03/29 06:58:15;;;;;;;;;;;;;;;6.79;74.83;100258.50;4975101;28;1956;-90
2022/03/29 07:00:40;;;;;;;;;;;;;;;6.88;74.62;100266.19;4958305;28;1228;-90
2022/03/29 07:03:06;;;;;;;;;;;;;;;6.82;74.24;100255.25;4957569;28;990;-90
2022/03/29 07:05:31;;;;;;;;;;;;;;;6.86;75.07;100254.72;4957792;28;1273;-90
2022/03/29 07:07:56;;;;;;;;;;;;;;;6.89;74.86;100262.38;4975145;28;821;-90
2022/03/29 07:13:05;;;;;;;;;;;;;;;6.59;75.44;100249.38;4975223;28;624;-90
2022/03/29 07:15:30;;;;;;;;;;;;;;;6.53;76.22;100264.00;4974016;28;1442;-90
2022/03/29 07:17:56;;;;;;;;;;;;;;;6.65;75.61;100261.91;4975016;28;976;-90
2022/03/29 07:20:21;;;;;;;;;;;;;;;6.67;75.49;100257.03;4957073;28;1898;-90
2022/03/29 07:22:47;;;;;;;;;;;;;;;6.79;74.60;100252.25;4957704;28;1205;-90
2022/03/29 07:25:13;;;;;;;;;;;;;;;6.88;74.46;100260.75;4957441;28;1334;-88
2022/03/29 07:27:39;;;;;;;;;;;;;;;7.04;74.25;100248.88;4957593;28;1288;-89
2022/03/29 07:30:05;;;;;;;;;;;;;;;7.06;73.70;100254.88;4957796;28;1371;-90
2022/03/29 07:32:30;;;;;;;;;;;;;;;7.05;73.53;100259.50;4957620;28;1189;-90
2022/03/29 07:34:55;;;;;;;;;;;;;;;7.01;73.09;100263.81;4957563;28;1319;-89
2022/03/29 07:37:21;;;;;;;;;;;;;;;7.07;74.06;100260.03;4973522;28;1296;-90
2022/03/29 07:39:47;;;;;;;;;;;;;;;7.18;73.08;100256.28;4957486;28;1954;-90
2022/03/29 07:42:12;;;;;;;;;;;;;;;7.15;72.61;100258.72;4951672;29;1279;-90
2022/03/29 07:44:37;;;;;;;;;;;;;;;7.18;71.67;100255.47;4938140;29;1160;-90
2022/03/29 07:47:02;;;;;;;;;;;;;;;7.21;72.16;100247.59;4938108;29;1349;-90
2022/03/29 07:49:29;;;;;;;;;;;;;;;7.23;71.49;100242.69;4937877;29;1198;-90
2022/03/29 07:51:54;;;;;;;;;;;;;;;7.12;72.09;100245.66;4955076;28;798;-90
2022/03/29 07:54:19;;;;;;;;;;;;;;;7.29;72.75;100246.28;4937611;29;1182;-90
2022/03/29 07:56:45;;;;;;;;;;;;;;;7.36;71.84;100243.31;4954858;28;1281;-90
2022/03/29 07:59:10;;;;;;;;;;;;;;;7.36;72.29;100238.69;4937778;29;1891;-90
2022/03/29 08:01:36;;;;;;;;;;;;;;;7.41;71.69;100240.59;4955037;29;977;-90
2022/03/29 08:04:01;;;;;;;;;;;;;;;7.23;71.86;100239.97;4954638;29;835;-90
2022/03/29 08:06:26;;;;;;;;;;;;;;;7.26;72.34;100235.09;4954920;28;1319;-90
2022/03/29 08:08:53;;;;;;;;;;;;;;;7.54;72.19;100238.22;4937860;29;1404;-90
2022/03/29 08:11:19;;;;;;;;;;;;;;;7.78;71.13;100238.56;4937860;29;1230;-90
2022/03/29 08:13:45;;;;;;;;;;;;;;;7.91;71.29;100234.53;4954724;29;811;-90
2022/03/29 08:16:10;;;;;;;;;;;;;;;7.95;70.78;100227.44;4937783;29;1498;-90
2022/03/29 08:18:38;;;;;;;;;;;;;;;7.95;71.02;100222.78;4937606;29;1895;-90
2022/03/29 08:21:47;;;;;;;;;;;;;;;7.74;69.40;100212.94;4937623;29;1282;-90
2022/03/29 08:23:48;;;;;;;;;;;;;;;7.51;70.44;100218.84;4954315;28;1053;-90
2022/03/29 08:26:13;;;;;;;;;;;;;;;7.41;72.22;100219.63;4937492;29;1280;-90
2022/03/29 08:28:38;;;;;;;;;;;;;;;7.35;71.02;100212.53;4954902;28;977;-90
2022/03/29 08:31:04;;;;;;;;;;;;;;;7.33;71.00;100217.41;4937586;28;929;-90
2022/03/29 08:33:29;;;;;;;;;;;;;;;7.39;71.48;100218.28;4939764;29;1374;-90
2022/03/29 08:35:57;;;;;;;;;;;;;;;7.54;70.90;100215.59;4940920;29;1205;-90
2022/03/29 08:38:22;;;;;;;;;;;;;;;7.50;70.52;100225.38;4957930;29;1959;-90
2022/03/29 08:40:47;;;;;;;;;;;;;;;7.58;70.50;100213.97;4940937;29;947;-90
2022/03/29 08:43:14;;;;;;;;;;;;;;;7.58;70.18;100217.50;4940618;29;1198;-90
2022/03/29 08:45:40;;;;;;;;;;;;;;;7.62;70.81;100215.09;4940774;29;1280;-90
2022/03/29 08:48:05;;;;;;;;;;;;;;;7.72;70.79;100214.31;4940702;29;1355;-90
2022/03/29 08:50:36;;;;;;;;;;;;;;;7.70;69.88;100213.75;4940506;29;1313;-90
2022/03/29 08:53:02;;;;;;;;;;;;;;;7.81;69.38;100208.06;4940574;29;1261;-90
2022/03/29 08:55:27;;;;;;;;;;;;;;;7.95;67.99;100206.44;4940507;28;1301;-90
2022/03/29 08:57:55;;;;;;;;;;;;;;;7.95;68.61;100201.00;4940646;29;1329;-90
2022/03/29 09:00:20;;;;;;;;;;;;;;;7.98;69.23;100199.63;4940429;29;1961;-90
2022/03/29 09:02:46;;;;;;;;;;;;;;;8.21;68.45;100196.38;4940381;29;1233;-90
2022/03/29 09:05:15;;;;;;;;;;;;;;;8.32;67.87;100198.06;4940069;28;1292;-90
2022/03/29 09:07:54;;;;;;;;;;;;;;;8.35;68.21;100193.94;4940376;29;1284;-90
2022/03/29 09:10:20;;;;;;;;;;;;;;;8.30;68.01;100199.38;4940491;29;1352;-90
2022/03/29 09:12:45;;;;;;;;;;;;;;;7.98;68.02;100200.47;4957465;29;1028;-90
2022/03/29 09:15:10;;;;;;;;;;;;;;;8.06;69.69;100210.00;4939948;28;1292;-90
2022/03/29 09:17:40;;;;;;;;;;;;;;;8.21;68.08;100209.19;4940226;29;1329;-90
2022/03/29 09:20:10;;;;;;;;;;;;;;;8.24;68.25;100203.22;4956802;29;1999;-90
2022/03/29 09:22:37;;;;;;;;;;;;;;;8.21;68.01;100209.19;4939856;29;1703;-90
2022/03/29 09:25:03;;;;;;;;;;;;;;;7.97;68.83;100206.19;4957036;28;1697;-90
2022/03/29 09:27:28;;;;;;;;;;;;;;;8.11;68.31;100220.09;5003954;23;1684;-89
2022/03/29 09:30:07;;;;;;;;;;;;;;;8.02;68.28;100217.06;5012699;28;1451;-89
2022/03/29 09:32:32;;;;;;;;;;;;;;;8.16;67.09;100207.28;4998138;28;1208;-89
2022/03/29 09:35:08;;;;;;;;;;;;;;;8.23;67.35;100213.28;4997784;28;1248;-89
2022/03/29 09:37:34;;;;;;;;;;;;;;;8.32;67.39;100208.97;4998002;28;1212;-90
2022/03/29 09:39:59;;;;;;;;;;;;;;;8.37;67.26;100205.41;4997771;28;2340;-89
2022/03/29 09:42:24;;;;;;;;;;;;;;;8.39;66.73;100194.22;5022715;28;1228;-89
2022/03/29 09:44:50;;;;;;;;;;;;;;;8.22;67.01;100202.66;5054462;28;832;-89
2022/03/29 09:47:20;;;;;;;;;;;;;;;8.43;67.09;100196.13;5037121;28;1303;-90
2022/03/29 09:49:49;;;;;;;;;;;;;;;8.71;66.79;100186.56;5055152;28;903;-89
2022/03/29 09:52:15;;;;;;;;;;;;;;;8.64;65.29;100197.75;5036886;28;1206;-88
2022/03/29 09:54:41;;;;;;;;;;;;;;;8.69;65.99;100191.47;5036936;28;1380;-90
2022/03/29 09:57:06;;;;;;;;;;;;;;;8.82;66.24;100184.63;5036952;28;1252;-89
2022/03/29 09:59:32;;;;;;;;;;;;;;;9.04;66.06;100185.09;5036977;28;1918;-89
2022/03/29 10:01:57;;;;;;;;;;;;;;;8.89;64.77;100183.25;5054782;28;1000;-88
2022/03/29 10:04:29;;;;;;;;;;;;;;;8.72;65.38;100178.09;5054530;28;833;-90
2022/03/29 10:06:58;;;;;;;;;;;;;;;8.79;65.67;100183.25;5036911;28;1245;-89
2022/03/29 10:09:27;;;;;;;;;;;;;;;8.93;65.62;100180.78;5036826;28;1177;-90
2022/03/29 10:12:04;;;;;;;;;;;;;;;9.21;65.90;100171.94;5036828;28;1227;-90
2022/03/29 10:14:31;;;;;;;;;;;;;;;9.48;64.89;100166.91;5054350;28;805;-89
2022/03/29 10:16:56;;;;;;;;;;;;;;;9.56;63.46;100159.19;5036925;28;1354;-90
2022/03/29 10:19:21;;;;;;;;;;;;;;;9.80;64.15;100160.97;5054455;28;1943;-90
2022/03/29 10:21:47;;;;;;;;;;;;;;;9.88;63.11;100156.78;5036607;28;1370;-90
2022/03/29 10:24:15;;;;;;;;;;;;;;;9.68;63.13;100149.56;5036350;28;1310;-90
2022/03/29 10:26:42;;;;;;;;;;;;;;;9.56;63.97;100149.09;5054059;28;1244;-90
2022/03/29 10:29:08;;;;;;;;;;;;;;;9.60;64.86;100146.63;5054276;28;848;-90
2022/03/29 10:31:34;;;;;;;;;;;;;;;9.46;63.70;100138.22;5036393;28;1234;-89
2022/03/29 10:34:32;;;;;;;;;;;;;;;9.41;65.04;100151.91;5036238;28;1246;-90
2022/03/29 10:37:09;;;;;;;;;;;;;;;9.37;65.60;100139.91;5003600;28;1330;-89
2022/03/29 10:39:49;;;;;;;;;;;;;;;9.14;64.01;100140.56;5036263;28;1955;-89
2022/03/29 10:42:24;;;;;;;;;;;;;;;8.90;64.76;100141.22;5053999;28;825;-90
2022/03/29 10:44:58;;;;;;;;;;;;;;;9.04;65.04;100139.50;5035939;28;1387;-89
2022/03/29 10:47:27;;;;;;;;;;;;;;;9.16;65.42;100130.19;5035988;28;1291;-89
2022/03/29 10:49:52;;;;;;;;;;;;;;;9.29;64.71;100127.66;5053882;28;837;-89
2022/03/29 10:52:20;;;;;;;;;;;;;;;9.45;65.37;100126.47;5036179;28;1533;-90
2022/03/29 10:54:46;;;;;;;;;;;;;;;9.41;64.52;100122.69;5035102;28;1322;-89
2022/03/29 10:57:29;;;;;;;;;;;;;;;9.38;64.21;100122.41;5053728;28;1270;-89
2022/03/29 11:00:06;;;;;;;;;;;;;;;9.36;63.56;100121.88;5035870;28;1953;-89
2022/03/29 11:02:32;;;;;;;;;;;;;;;9.41;63.73;100114.50;5035939;28;1266;-90
2022/03/29 11:05:06;;;;;;;;;;;;;;;9.27;63.45;100112.66;5053500;28;864;-89
2022/03/29 11:07:35;;;;;;;;;;;;;;;9.25;65.00;100101.19;5035729;28;1399;-90
2022/03/29 11:10:11;;;;;;;;;;;;;;;9.28;63.15;100106.91;5036161;28;1346;-90
2022/03/29 11:12:37;;;;;;;;;;;;;;;9.37;63.16;100097.00;5035761;28;1326;-89
2022/03/29 11:15:23;;;;;;;;;;;;;;;9.34;62.65;100094.03;5020972;28;1973;-89
2022/03/29 11:17:48;;;;;;;;;;;;;;;9.21;64.64;100087.28;5007795;28;1422;-89
2022/03/29 11:20:30;;;;;;;;;;;;;;;9.43;64.36;100087.72;5012127;28;1961;-89
2022/03/29 11:23:00;;;;;;;;;;;;;;;9.45;62.86;100088.22;5014878;28;1683;-90
2022/03/29 11:25:25;;;;;;;;;;;;;;;9.45;63.71;100085.50;5001199;28;1740;-87
2022/03/29 11:27:51;;;;;;;;;;;;;;;9.53;61.76;100070.41;5007166;28;1470;-89
2022/03/29 11:30:16;;;;;;;;;;;;;;;9.59;63.28;100071.22;5029062;28;1831;-89
2022/03/29 11:32:43;;;;;;;;;;;;;;;9.52;61.34;100066.06;4996802;28;1445;-88
2022/03/29 11:35:09;;;;;;;;;;;;;;;9.66;62.40;100050.66;4999056;28;1330;-89
2022/03/29 11:37:43;;;;;;;;;;;;;;;9.66;60.45;100053.38;5023780;28;1509;-88
2022/03/29 11:40:09;;;;;;;;;;;;;;;9.72;61.78;100049.50;5015606;28;1902;-89
2022/03/29 11:42:41;;;;;;;;;;;;;;;9.86;60.42;100055.97;5005024;28;1303;-90
2022/03/29 11:45:07;;;;;;;;;;;;;;;9.96;61.95;100052.31;4996379;28;1121;-90
2022/03/29 11:47:32;;;;;;;;;;;;;;;10.15;61.10;100053.22;5014284;28;1327;-90
2022/03/29 11:49:57;;;;;;;;;;;;;;;10.31;61.39;100036.69;5016256;28;901;-89
2022/03/29 11:52:31;;;;;;;;;;;;;;;10.51;61.09;100040.00;5016169;28;1168;-89
2022/03/29 11:54:57;;;;;;;;;;;;;;;10.39;58.78;100031.38;5015788;28;1398;-89
2022/03/29 11:57:27;;;;;;;;;;;;;;;10.38;60.43;100023.50;5015691;28;1182;-90
2022/03/29 11:59:53;;;;;;;;;;;;;;;10.50;60.38;100013.75;5003216;28;1890;-89
2022/03/29 12:02:19;;;;;;;;;;;;;;;10.77;60.85;100024.09;5001595;28;1292;-89
2022/03/29 12:04:45;;;;;;;;;;;;;;;10.82;58.35;100015.00;5014913;28;1346;-89
2022/03/29 12:07:10;;;;;;;;;;;;;;;10.73;58.85;99997.59;4998252;28;1307;-89
2022/03/29 12:09:36;;;;;;;;;;;;;;;10.78;57.47;100000.28;5000083;28;1267;-89
2022/03/29 12:12:03;;;;;;;;;;;;;;;10.80;58.13;99992.59;5000074;28;976;-89
2022/03/29 12:14:28;;;;;;;;;;;;;;;10.82;60.27;99987.63;4999915;28;1286;-89
2022/03/29 12:17:04;;;;;;;;;;;;;;;10.85;58.18;99978.81;4999664;28;1186;-89
2022/03/29 12:19:30;;;;;;;;;;;;;;;10.94;58.78;99985.28;5004581;28;1957;-89
2022/03/29 12:21:57;;;;;;;;;;;;;;;11.11;57.06;99971.06;5019159;28;1296;-89
2022/03/29 12:24:26;;;;;;;;;;;;;;;11.28;57.10;99963.94;5019987;28;1342;-89
2022/03/29 12:26:56;;;;;;;;;;;;;;;11.45;56.71;99965.31;5009221;28;1343;-89
2022/03/29 12:29:25;;;;;;;;;;;;;;;11.44;56.15;99958.22;4999938;28;1276;-90
2022/03/29 12:32:00;;;;;;;;;;;;;;;11.28;56.65;99954.91;5009507;28;1358;-89
2022/03/29 12:34:29;;;;;;;;;;;;;;;11.35;58.34;99958.88;5013752;28;1302;-90
2022/03/29 12:36:56;;;;;;;;;;;;;;;11.54;58.39;99947.09;5017336;28;1264;-89
2022/03/29 12:39:21;;;;;;;;;;;;;;;11.74;56.13;99942.06;5015090;28;1894;-89
2022/03/29 12:41:55;;;;;;;;;;;;;;;11.81;57.52;99935.41;4999790;28;1110;-88
2022/03/29 12:44:31;;;;;;;;;;;;;;;12.12;57.38;99928.22;5012078;28;1347;-89
2022/03/29 12:46:57;;;;;;;;;;;;;;;12.31;56.68;99934.41;5005669;28;1366;-89
2022/03/29 12:49:22;;;;;;;;;;;;;;;12.33;55.95;99925.88;5008126;28;1412;-89
2022/03/29 12:51:55;;;;;;;;;;;;;;;12.19;54.10;99920.38;5016966;28;1247;-89
2022/03/29 12:54:41;;;;;;;;;;;;;;;12.16;52.73;99912.78;5000863;28;1295;-89
2022/03/29 12:57:08;;;;;;;;;;;;;;;12.17;53.30;99911.63;5010884;28;1422;-89
2022/03/29 12:59:36;;;;;;;;;;;;;;;12.32;51.86;99905.03;5006513;28;1946;-90
2022/03/29 13:02:13;;;;;;;;;;;;;;;12.30;51.49;99899.84;5022344;28;1164;-89
2022/03/29 13:04:44;;;;;;;;;;;;;;;12.40;51.43;99898.84;5019599;28;1368;-89
2022/03/29 13:07:10;;;;;;;;;;;;;;;12.54;51.83;99896.06;5019108;28;1357;-90
2022/03/29 13:09:36;;;;;;;;;;;;;;;12.77;51.22;99903.22;5019249;28;1188;-90
2022/03/29 13:12:12;;;;;;;;;;;;;;;12.46;52.23;99878.38;5018928;28;1192;-89
2022/03/29 13:14:38;;;;;;;;;;;;;;;12.72;52.00;99892.34;5011520;28;1850;-89
2022/03/29 13:17:03;;;;;;;;;;;;;;;12.95;52.02;99887.69;4999354;28;1319;-89
2022/03/29 13:19:29;;;;;;;;;;;;;;;13.39;49.48;99887.72;4998604;28;1878;-89
2022/03/29 13:21:58;;;;;;;;;;;;;;;14.06;48.62;99887.56;4998820;28;1256;-89
2022/03/29 13:24:23;;;;;;;;;;;;;;;15.14;45.27;99875.75;4999122;28;1243;-90
2022/03/29 13:26:49;;;;;;;;;;;;;;;15.13;45.54;99868.63;4998895;28;1261;-90
2022/03/29 13:29:15;;;;;;;;;;;;;;;14.80;45.46;99871.03;5002912;28;1350;-89
2022/03/29 13:31:41;;;;;;;;;;;;;;;14.76;46.71;99865.38;4999166;28;1351;-90
2022/03/29 13:34:09;;;;;;;;;;;;;;;14.82;46.13;99863.28;4998920;28;1671;-90
2022/03/29 13:36:34;;;;;;;;;;;;;;;15.66;44.37;99857.16;5008103;28;1304;-89
2022/03/29 13:39:00;;;;;;;;;;;;;;;15.88;43.75;99853.34;5008139;28;1898;-89
2022/03/29 13:41:26;;;;;;;;;;;;;;;16.54;42.67;99845.34;5005212;28;1375;-89
2022/03/29 13:43:51;;;;;;;;;;;;;;;15.78;42.88;99842.69;5017447;28;1381;-89
2022/03/29 13:46:17;;;;;;;;;;;;;;;14.66;45.43;99846.41;4998484;28;1264;-90
2022/03/29 13:48:43;;;;;;;;;;;;;;;14.55;47.43;99838.78;4998710;28;1173;-89
2022/03/29 13:51:09;;;;;;;;;;;;;;;14.72;46.13;99847.88;4998468;28;1847;-90
2022/03/29 13:53:35;;;;;;;;;;;;;;;14.01;46.84;99832.69;4997925;28;1605;-91
2022/03/29 13:56:00;;;;;;;;;;;;;;;14.88;46.43;99823.41;5010103;28;1622;-88
2022/03/29 13:58:27;;;;;;;;;;;;;;;15.61;43.45;99824.25;5005846;28;1902;-89
2022/03/29 14:00:53;;;;;;;;;;;;;;;15.56;44.97;99818.91;5013970;28;1417;-89
2022/03/29 14:03:18;;;;;;;;;;;;;;;14.83;45.67;99814.50;5011666;28;1752;-90
2022/03/29 14:05:44;;;;;;;;;;;;;;;14.01;47.32;99821.69;5017227;28;1303;-88
2022/03/29 14:08:10;;;;;;;;;;;;;;;14.09;48.60;99820.88;5028814;28;1593;-89
2022/03/29 14:10:36;;;;;;;;;;;;;;;13.60;49.49;99822.03;4997415;28;1153;-88
2022/03/29 14:13:02;;;;;;;;;;;;;;;13.23;49.38;99818.59;5020544;28;1569;-89
2022/03/29 14:15:28;;;;;;;;;;;;;;;13.23;49.69;99813.09;4999384;28;1513;-89
2022/03/29 14:17:54;;;;;;;;;;;;;;;13.31;49.00;99805.22;4999893;28;1607;-89
2022/03/29 14:20:19;;;;;;;;;;;;;;;13.57;49.87;99809.72;4999028;28;1907;-89
2022/03/29 14:22:45;;;;;;;;;;;;;;;13.67;49.60;99799.56;4998021;28;1812;-90
2022/03/29 14:25:11;;;;;;;;;;;;;;;13.53;48.21;99803.22;5005493;28;1782;-89
2022/03/29 14:27:36;;;;;;;;;;;;;;;13.69;49.07;99798.13;5018554;28;1520;-89
2022/03/29 14:30:01;;;;;;;;;;;;;;;13.71;48.21;99795.84;5010699;28;1417;-88
2022/03/29 14:32:28;;;;;;;;;;;;;;;13.89;49.83;99791.22;4998179;28;1452;-90
2022/03/29 14:34:53;;;;;;;;;;;;;;;14.17;46.88;99786.25;5023623;28;1446;-88
2022/03/29 14:37:22;;;;;;;;;;;;;;;14.34;46.67;99789.84;5011836;28;1373;-90
2022/03/29 14:39:47;;;;;;;;;;;;;;;15.08;45.79;99775.06;4997642;28;2014;-90
2022/03/29 14:42:12;;;;;;;;;;;;;;;16.21;42.35;99771.47;5014733;28;1617;-89
2022/03/29 14:44:38;;;;;;;;;;;;;;;16.01;41.60;99768.69;5003539;28;1525;-90
2022/03/29 14:47:06;;;;;;;;;;;;;;;15.84;40.89;99767.66;5020104;28;1380;-90
2022/03/29 14:49:31;;;;;;;;;;;;;;;15.23;41.82;99769.00;5023467;28;1804;-90
2022/03/29 14:51:58;;;;;;;;;;;;;;;15.00;42.93;99765.69;5003492;28;1540;-90
2022/03/29 14:54:23;;;;;;;;;;;;;;;15.22;42.68;99763.84;5004092;28;1590;-89
2022/03/29 14:56:49;;;;;;;;;;;;;;;15.96;41.73;99757.84;5002595;28;1503;-88
2022/03/29 14:59:15;;;;;;;;;;;;;;;15.34;41.17;99753.72;5004738;28;1993;-90
2022/03/29 15:01:43;;;;;;;;;;;;;;;14.93;42.74;99754.34;5000348;28;1318;-93
2022/03/29 15:04:08;;;;;;;;;;;;;;;14.62;42.05;99754.56;5011481;28;1785;-90
2022/03/29 15:06:34;;;;;;;;;;;;;;;14.58;44.42;99753.59;5025084;28;1716;-90
2022/03/29 15:08:59;;;;;;;;;;;;;;;14.93;43.39;99748.03;5002681;28;1777;-91
2022/03/29 15:11:24;;;;;;;;;;;;;;;15.67;40.82;99753.94;5008767;28;1161;-90
2022/03/29 15:13:49;;;;;;;;;;;;;;;15.18;42.23;99749.91;5001971;28;1836;-91
2022/03/29 15:16:18;;;;;;;;;;;;;;;14.60;42.38;99743.06;4999665;28;1586;-90
2022/03/29 15:18:43;;;;;;;;;;;;;;;14.73;42.01;99744.00;5003636;28;1961;-91
2022/03/29 15:21:08;;;;;;;;;;;;;;;14.86;41.97;99744.97;5002146;28;1473;-90
2022/03/29 15:23:34;;;;;;;;;;;;;;;15.49;41.17;99744.09;5000797;28;1341;-90
2022/03/29 15:25:59;;;;;;;;;;;;;;;15.24;42.32;99728.47;5000133;28;1648;-89
2022/03/29 15:28:24;;;;;;;;;;;;;;;15.35;40.88;99736.06;5009912;28;1341;-91
2022/03/29 15:30:49;;;;;;;;;;;;;;;15.32;40.98;99728.44;4996147;28;1289;-91
2022/03/29 15:33:15;;;;;;;;;;;;;;;15.56;39.86;99727.91;5003361;28;1509;-89
2022/03/29 15:35:40;;;;;;;;;;;;;;;14.94;41.00;99730.34;5013335;28;1734;-91
2022/03/29 15:38:05;;;;;;;;;;;;;;;14.54;42.10;99727.03;5000002;28;1437;-90
2022/03/29 15:40:33;;;;;;;;;;;;;;;14.26;42.83;99719.06;5009996;28;1965;-91
2022/03/29 15:42:58;;;;;;;;;;;;;;;14.68;42.46;99728.47;5003707;28;1306;-89
2022/03/29 15:45:23;;;;;;;;;;;;;;;14.48;42.67;99717.28;5016000;28;1245;-91
2022/03/29 15:47:48;;;;;;;;;;;;;;;14.47;41.88;99716.50;5002843;28;1380;-90
2022/03/29 15:50:14;;;;;;;;;;;;;;;14.66;42.02;99707.88;5028187;28;1372;-91
2022/03/29 15:52:39;;;;;;;;;;;;;;;14.08;42.65;99711.13;5025141;28;1728;-90
2022/03/29 15:55:04;;;;;;;;;;;;;;;14.09;43.63;99713.56;5012365;28;1631;-90
2022/03/29 15:57:30;;;;;;;;;;;;;;;14.03;44.57;99721.16;5002185;28;1519;-91
2022/03/29 15:59:55;;;;;;;;;;;;;;;13.54;44.88;99721.53;5002474;28;1957;-90
2022/03/29 16:02:21;;;;;;;;;;;;;;;13.61;45.42;99716.38;5008329;28;1428;-90
2022/03/29 16:04:46;;;;;;;;;;;;;;;13.41;44.19;99708.72;5002096;28;1657;-90
2022/03/29 16:07:11;;;;;;;;;;;;;;;13.74;42.56;99706.38;5017386;28;1288;-90
2022/03/29 16:09:41;;;;;;;;;;;;;;;13.94;41.61;99706.59;5005001;28;1433;-90
2022/03/29 16:12:08;;;;;;;;;;;;;;;13.94;42.35;99703.84;5011611;28;1241;-91
2022/03/29 16:14:33;;;;;;;;;;;;;;;14.04;41.35;99705.44;5007669;28;1271;-90
2022/03/29 16:16:58;;;;;;;;;;;;;;;14.11;43.04;99703.03;5000215;28;1490;-91
2022/03/29 16:19:24;;;;;;;;;;;;;;;13.77;42.12;99703.81;5008391;28;1878;-91
2022/03/29 16:21:49;;;;;;;;;;;;;;;13.43;41.80;99699.03;5027488;28;1578;-91
2022/03/29 16:24:15;;;;;;;;;;;;;;;13.55;42.91;99696.47;5000346;28;1165;-91
2022/03/29 16:26:40;;;;;;;;;;;;;;;13.72;43.58;99700.38;4999457;28;1322;-92
2022/03/29 16:29:05;;;;;;;;;;;;;;;13.46;41.79;99701.13;5019549;28;1804;-91
2022/03/29 16:31:31;;;;;;;;;;;;;;;13.31;42.44;99696.09;5009111;28;1319;-91
2022/03/29 16:33:56;;;;;;;;;;;;;;;13.51;42.79;99694.69;5006784;28;1389;-90
2022/03/29 16:36:23;;;;;;;;;;;;;;;13.45;42.42;99693.22;5018940;28;1339;-90
2022/03/29 16:38:49;;;;;;;;;;;;;;;13.08;43.05;99703.56;5006865;28;1902;-89
2022/03/29 16:41:14;;;;;;;;;;;;;;;12.73;44.76;99699.00;5011413;28;1284;-90
2022/03/29 16:43:40;;;;;;;;;;;;;;;12.57;45.32;99703.28;5014925;28;1710;-90
2022/03/29 16:46:06;;;;;;;;;;;;;;;12.49;45.93;99694.69;5008686;28;1371;-90
2022/03/29 16:48:31;;;;;;;;;;;;;;;12.55;46.07;99702.78;5000645;28;1322;-90
2022/03/29 16:50:57;;;;;;;;;;;;;;;12.62;45.51;99703.94;5009894;28;1693;-91
2022/03/29 16:53:22;;;;;;;;;;;;;;;12.59;45.09;99695.53;4997708;28;1243;-91
2022/03/29 16:55:47;;;;;;;;;;;;;;;12.23;45.55;99699.16;4999307;28;1288;-91